createdAt,value
2018-02-05T00:00:06.142Z,81.60
2018-02-05T00:01:08.899Z,81.60
2018-02-05T00:02:11.503Z,81.60
2018-02-05T00:03:08.738Z,81.60
2018-02-05T00:04:06.400Z,81.60
2018-02-05T00:05:11.119Z,81.60
2018-02-05T00:06:06.461Z,81.60
2018-02-05T00:07:09.306Z,81.50
2018-02-05T00:08:05.804Z,81.50
2018-02-05T00:09:05.773Z,81.40
2018-02-05T00:10:06.411Z,81.40
2018-02-05T00:11:11.401Z,81.30
2018-02-05T00:12:05.609Z,81.30
2018-02-05T00:13:11.351Z,81.30
2018-02-05T00:14:05.931Z,81.30
2018-02-05T00:15:08.378Z,81.40
2018-02-05T00:16:05.997Z,81.40
2018-02-05T00:17:06.309Z,81.40
2018-02-05T00:18:06.098Z,81.40
2018-02-05T00:19:09.853Z,81.40
2018-02-05T00:20:07.060Z,81.50
2018-02-05T00:21:08.166Z,81.40
2018-02-05T00:22:08.168Z,81.30
2018-02-05T00:23:11.026Z,81.30
2018-02-05T00:24:10.533Z,81.30
2018-02-05T00:25:10.904Z,81.30
2018-02-05T00:26:06.324Z,81.30
2018-02-05T00:27:10.856Z,81.40
2018-02-05T00:28:06.133Z,81.40
2018-02-05T00:29:07.358Z,81.40
2018-02-05T00:30:08.601Z,81.40
2018-02-05T00:31:06.373Z,81.30
2018-02-05T00:32:06.235Z,81.30
2018-02-05T00:33:09.197Z,81.10
2018-02-05T00:34:05.745Z,81.00
2018-02-05T00:35:10.700Z,81.00
2018-02-05T00:36:09.077Z,80.90
2018-02-05T00:37:13.088Z,81.00
2018-02-05T00:38:08.697Z,81.00
2018-02-05T00:39:06.140Z,81.10
2018-02-05T00:40:05.509Z,81.10
2018-02-05T00:41:11.098Z,81.20
2018-02-05T00:42:09.023Z,81.10
2018-02-05T00:43:10.581Z,81.10
2018-02-05T00:44:05.776Z,80.90
2018-02-05T00:45:05.855Z,80.80
2018-02-05T00:46:08.038Z,80.70
2018-02-05T00:47:09.175Z,80.70
2018-02-05T00:48:05.922Z,80.70
2018-02-05T00:49:06.386Z,80.80
2018-02-05T00:50:06.963Z,80.90
2018-02-05T00:51:10.425Z,80.80
2018-02-05T00:52:06.623Z,80.80
2018-02-05T00:53:06.606Z,80.80
2018-02-05T00:54:11.533Z,80.70
2018-02-05T00:55:09.315Z,80.70
2018-02-05T00:56:05.768Z,80.70
2018-02-05T00:57:08.307Z,80.70
2018-02-05T00:58:09.900Z,80.60
2018-02-05T00:59:06.431Z,80.60
2018-02-05T01:00:08.933Z,80.60
2018-02-05T01:01:06.493Z,80.60
2018-02-05T01:02:09.554Z,80.80
2018-02-05T01:03:06.023Z,80.80
2018-02-05T01:04:08.553Z,81.00
2018-02-05T01:05:09.606Z,81.00
2018-02-05T01:06:06.105Z,81.00
2018-02-05T01:07:09.308Z,81.00
2018-02-05T01:08:10.863Z,81.00
2018-02-05T01:09:06.319Z,81.00
2018-02-05T01:10:11.029Z,80.80
2018-02-05T01:11:09.206Z,80.70
2018-02-05T01:12:08.629Z,80.60
2018-02-05T01:13:06.134Z,80.50
2018-02-05T01:14:09.463Z,80.60
2018-02-05T01:15:11.049Z,80.60
2018-02-05T01:16:10.641Z,80.50
2018-02-05T01:17:06.155Z,80.60
2018-02-05T01:18:05.596Z,80.60
2018-02-05T01:19:06.427Z,80.70
2018-02-05T01:20:05.780Z,80.80
2018-02-05T01:21:10.682Z,80.80
2018-02-05T01:22:06.305Z,80.80
2018-02-05T01:23:05.746Z,80.90
2018-02-05T01:24:05.825Z,80.90
2018-02-05T01:25:09.100Z,80.90
2018-02-05T01:26:05.537Z,80.90
2018-02-05T01:27:11.438Z,80.80
2018-02-05T01:28:08.639Z,80.80
2018-02-05T01:29:06.172Z,80.70
2018-02-05T01:30:05.728Z,80.70
2018-02-05T01:31:10.661Z,80.60
2018-02-05T01:32:08.783Z,80.60
2018-02-05T01:33:06.277Z,80.60
2018-02-05T01:34:08.540Z,80.60
2018-02-05T01:35:13.546Z,80.50
2018-02-05T01:36:11.089Z,80.40
2018-02-05T01:37:09.505Z,80.50
2018-02-05T01:38:11.070Z,80.50
2018-02-05T01:39:10.631Z,80.50
2018-02-05T01:40:13.370Z,80.60
2018-02-05T01:41:05.874Z,80.60
2018-02-05T01:42:05.725Z,80.60
2018-02-05T01:43:06.128Z,80.40
2018-02-05T01:44:09.525Z,80.20
2018-02-05T01:45:06.001Z,80.20
2018-02-05T01:46:09.070Z,80.30
2018-02-05T01:47:05.985Z,80.30
2018-02-05T01:48:06.416Z,80.30
2018-02-05T01:49:06.444Z,80.30
2018-02-05T01:50:13.787Z,80.20
2018-02-05T01:51:12.328Z,80.20
2018-02-05T01:52:10.679Z,80.10
2018-02-05T01:53:08.616Z,80.20
2018-02-05T01:54:06.352Z,80.20
2018-02-05T01:55:06.443Z,80.20
2018-02-05T01:56:06.426Z,80.30
2018-02-05T01:57:11.145Z,80.30
2018-02-05T01:58:05.797Z,80.30
2018-02-05T01:59:06.512Z,80.30
2018-02-05T02:00:08.586Z,80.10
2018-02-05T02:01:06.019Z,80.20
2018-02-05T02:02:09.782Z,80.00
2018-02-05T02:03:06.509Z,80.00
2018-02-05T02:04:06.490Z,80.00
2018-02-05T02:05:06.494Z,80.00
2018-02-05T02:06:05.866Z,79.90
2018-02-05T02:07:10.689Z,79.80
2018-02-05T02:08:11.084Z,79.80
2018-02-05T02:09:08.848Z,79.80
2018-02-05T02:10:06.461Z,79.80
2018-02-05T02:11:11.217Z,79.60
2018-02-05T02:12:05.879Z,79.60
2018-02-05T02:13:11.603Z,79.40
2018-02-05T02:14:06.051Z,79.40
2018-02-05T02:15:09.484Z,79.50
2018-02-05T02:16:06.118Z,79.50
2018-02-05T02:17:10.701Z,79.60
2018-02-05T02:18:06.322Z,79.60
2018-02-05T02:19:06.098Z,79.70
2018-02-05T02:20:06.770Z,79.80
2018-02-05T02:21:11.458Z,79.80
2018-02-05T02:22:10.892Z,79.70
2018-02-05T02:23:10.136Z,79.70
2018-02-05T02:24:06.875Z,79.70
2018-02-05T02:25:06.345Z,79.70
2018-02-05T02:26:08.391Z,79.70
2018-02-05T02:27:09.604Z,79.80
2018-02-05T02:28:06.116Z,79.70
2018-02-05T02:29:09.475Z,79.60
2018-02-05T02:30:07.095Z,79.50
2018-02-05T02:31:06.645Z,79.50
2018-02-05T02:32:11.516Z,79.30
2018-02-05T02:33:06.066Z,79.30
2018-02-05T02:34:10.646Z,79.40
2018-02-05T02:35:10.644Z,79.40
2018-02-05T02:36:11.834Z,79.30
2018-02-05T02:37:09.537Z,79.30
2018-02-05T02:38:05.955Z,79.30
2018-02-05T02:39:06.158Z,79.30
2018-02-05T02:40:06.062Z,79.30
2018-02-05T02:41:05.942Z,79.30
2018-02-05T02:42:10.647Z,79.00
2018-02-05T02:43:09.530Z,79.00
2018-02-05T02:44:06.060Z,79.10
2018-02-05T02:45:06.228Z,79.00
2018-02-05T02:46:08.321Z,79.00
2018-02-05T02:47:06.023Z,79.00
2018-02-05T02:48:06.193Z,79.00
2018-02-05T02:49:06.213Z,79.20
2018-02-05T02:50:07.161Z,79.20
2018-02-05T02:51:09.144Z,79.20
2018-02-05T02:52:05.686Z,79.20
2018-02-05T02:53:05.844Z,79.20
2018-02-05T02:54:09.772Z,79.20
2018-02-05T02:55:06.314Z,79.10
2018-02-05T02:56:05.533Z,79.20
2018-02-05T02:57:09.184Z,79.40
2018-02-05T02:58:05.904Z,79.40
2018-02-05T02:59:05.437Z,79.50
2018-02-05T03:00:10.978Z,79.50
2018-02-05T03:01:09.043Z,79.60
2018-02-05T03:02:08.425Z,79.60
2018-02-05T03:03:08.513Z,79.70
2018-02-05T03:04:06.034Z,79.70
2018-02-05T03:05:06.607Z,79.90
2018-02-05T03:06:11.217Z,80.00
2018-02-05T03:07:05.703Z,80.00
2018-02-05T03:08:10.600Z,80.20
2018-02-05T03:09:09.521Z,80.30
2018-02-05T03:10:13.660Z,80.40
2018-02-05T03:11:11.139Z,80.30
2018-02-05T03:12:06.303Z,80.40
2018-02-05T03:13:05.868Z,80.50
2018-02-05T03:14:05.465Z,80.50
2018-02-05T03:15:05.907Z,80.50
2018-02-05T03:16:11.034Z,80.60
2018-02-05T03:17:09.693Z,80.70
2018-02-05T03:18:06.136Z,80.70
2018-02-05T03:19:08.942Z,80.90
2018-02-05T03:20:11.464Z,80.90
2018-02-05T03:21:08.839Z,81.00
2018-02-05T03:22:06.419Z,81.00
2018-02-05T03:23:10.398Z,81.10
2018-02-05T03:24:05.932Z,81.10
2018-02-05T03:25:05.723Z,81.10
2018-02-05T03:26:11.102Z,81.20
2018-02-05T03:27:06.378Z,81.30
2018-02-05T03:28:06.519Z,81.40
2018-02-05T03:29:11.502Z,81.40
2018-02-05T03:30:08.546Z,30.10
2018-02-05T03:31:11.069Z,81.30
2018-02-05T03:32:05.591Z,81.30
2018-02-05T03:33:10.851Z,81.30
2018-02-05T03:34:06.437Z,81.30
2018-02-05T03:35:08.939Z,81.40
2018-02-05T03:36:06.487Z,81.40
2018-02-05T03:37:09.779Z,81.50
2018-02-05T03:38:06.546Z,81.40
2018-02-05T03:39:09.136Z,81.50
2018-02-05T03:40:05.677Z,81.50
2018-02-05T03:41:08.726Z,81.50
2018-02-05T03:42:11.649Z,81.30
2018-02-05T03:43:11.253Z,81.20
2018-02-05T03:44:05.759Z,81.30
2018-02-05T03:45:11.320Z,81.40
2018-02-05T03:46:05.941Z,81.30
2018-02-05T03:47:11.390Z,81.40
2018-02-05T03:48:08.402Z,81.50
2018-02-05T03:49:05.904Z,81.50
2018-02-05T03:50:11.461Z,81.50
2018-02-05T03:51:05.964Z,81.60
2018-02-05T03:52:05.888Z,81.70
2018-02-05T03:53:06.282Z,81.70
2018-02-05T03:54:05.921Z,81.70
2018-02-05T03:55:10.649Z,81.80
2018-02-05T03:56:05.845Z,81.80
2018-02-05T03:57:05.577Z,81.80
2018-02-05T03:58:10.565Z,81.80
2018-02-05T03:59:08.736Z,81.80
2018-02-05T04:00:06.394Z,81.80
2018-02-05T04:01:05.893Z,81.80
2018-02-05T04:02:08.914Z,82.00
2018-02-05T04:03:06.405Z,81.80
2018-02-05T04:04:05.717Z,81.90
2018-02-05T04:05:06.378Z,81.80
2018-02-05T04:06:11.191Z,82.10
2018-02-05T04:07:05.553Z,82.10
2018-02-05T04:08:10.935Z,82.20
2018-02-05T04:09:08.975Z,82.20
2018-02-05T04:10:05.744Z,82.20
2018-02-05T04:11:05.855Z,82.30
2018-02-05T04:12:05.707Z,82.30
2018-02-05T04:13:06.322Z,82.30
2018-02-05T04:14:07.434Z,82.40
2018-02-05T04:15:05.848Z,82.40
2018-02-05T04:16:06.396Z,82.40
2018-02-05T04:17:06.552Z,82.50
2018-02-05T04:18:05.965Z,82.70
2018-02-05T04:19:10.536Z,83.00
2018-02-05T04:20:10.569Z,83.10
2018-02-05T04:21:06.077Z,83.20
2018-02-05T04:22:06.254Z,83.50
2018-02-05T04:23:08.416Z,83.70
2018-02-05T04:24:06.088Z,83.60
2018-02-05T04:25:05.462Z,83.70
2018-02-05T04:26:05.829Z,83.80
2018-02-05T04:27:06.377Z,83.90
2018-02-05T04:28:09.393Z,84.10
2018-02-05T04:29:10.945Z,84.40
2018-02-05T04:30:06.317Z,84.40
2018-02-05T04:31:09.215Z,84.70
2018-02-05T04:32:05.677Z,84.70
2018-02-05T04:33:11.312Z,85.10
2018-02-05T04:34:09.161Z,85.10
2018-02-05T04:35:05.620Z,85.10
2018-02-05T04:36:06.361Z,85.10
2018-02-05T04:37:05.719Z,85.10
2018-02-05T04:38:11.050Z,85.00
2018-02-05T04:39:06.235Z,85.00
2018-02-05T04:40:05.911Z,85.00
2018-02-05T04:41:10.655Z,85.20
2018-02-05T04:42:07.194Z,85.20
2018-02-05T04:43:06.166Z,85.20
2018-02-05T04:44:09.115Z,85.20
2018-02-05T04:45:05.672Z,85.20
2018-02-05T04:46:12.477Z,85.20
2018-02-05T04:47:08.893Z,85.30
2018-02-05T04:48:06.608Z,85.30
2018-02-05T04:49:11.165Z,85.30
2018-02-05T04:50:05.659Z,85.30
2018-02-05T04:51:06.529Z,85.40
2018-02-05T04:52:06.008Z,85.40
2018-02-05T04:53:06.081Z,85.40
2018-02-05T04:54:06.044Z,85.40
2018-02-05T04:55:05.829Z,85.40
2018-02-05T04:56:05.636Z,85.40
2018-02-05T04:57:06.512Z,85.50
2018-02-05T04:58:09.459Z,85.50
2018-02-05T04:59:10.939Z,85.50
2018-02-05T05:00:08.644Z,85.50
2018-02-05T05:01:09.294Z,85.60
2018-02-05T05:02:05.886Z,85.60
2018-02-05T05:03:10.537Z,85.70
2018-02-05T05:04:05.844Z,85.70
2018-02-05T05:05:05.883Z,85.80
2018-02-05T05:06:10.869Z,85.90
2018-02-05T05:07:06.613Z,85.90
2018-02-05T05:08:06.304Z,85.80
2018-02-05T05:09:08.790Z,85.90
2018-02-05T05:10:12.273Z,85.90
2018-02-05T05:11:05.849Z,85.90
2018-02-05T05:12:05.550Z,85.90
2018-02-05T05:13:06.349Z,86.00
2018-02-05T05:14:10.753Z,86.10
2018-02-05T05:15:06.347Z,86.00
2018-02-05T05:16:05.937Z,86.10
2018-02-05T05:17:06.682Z,86.00
2018-02-05T05:18:06.426Z,86.00
2018-02-05T05:19:05.910Z,86.20
2018-02-05T05:20:08.698Z,86.30
2018-02-05T05:21:08.787Z,86.40
2018-02-05T05:22:11.482Z,86.40
2018-02-05T05:23:05.854Z,86.50
2018-02-05T05:24:05.961Z,86.50
2018-02-05T05:25:06.137Z,86.50
2018-02-05T05:26:06.297Z,86.50
2018-02-05T05:27:08.678Z,86.50
2018-02-05T05:28:06.309Z,86.50
2018-02-05T05:29:05.964Z,86.60
2018-02-05T05:30:11.456Z,86.60
2018-02-05T05:31:08.819Z,86.60
2018-02-05T05:32:08.851Z,86.60
2018-02-05T05:33:08.794Z,86.60
2018-02-05T05:34:06.398Z,86.60
2018-02-05T05:35:06.092Z,86.70
2018-02-05T05:36:10.901Z,86.80
2018-02-05T05:37:10.080Z,86.80
2018-02-05T05:38:05.776Z,86.90
2018-02-05T05:39:11.501Z,86.90
2018-02-05T05:40:06.321Z,86.90
2018-02-05T05:41:10.053Z,87.00
2018-02-05T05:42:05.649Z,87.00
2018-02-05T05:43:09.238Z,87.00
2018-02-05T05:44:08.861Z,87.20
2018-02-05T05:45:09.416Z,87.20
2018-02-05T05:46:05.963Z,87.20
2018-02-05T05:47:05.498Z,87.20
2018-02-05T05:48:16.139Z,87.10
2018-02-05T05:49:18.780Z,86.90
2018-02-05T05:50:08.852Z,86.80
2018-02-05T05:51:11.363Z,87.00
2018-02-05T05:52:05.849Z,86.80
2018-02-05T05:53:06.656Z,86.80
2018-02-05T05:54:11.558Z,86.80
2018-02-05T05:55:14.203Z,86.90
2018-02-05T05:56:05.769Z,87.00
2018-02-05T05:57:09.363Z,86.90
2018-02-05T05:58:05.782Z,87.00
2018-02-05T05:59:05.937Z,86.90
2018-02-05T06:00:06.194Z,86.90
2018-02-05T06:01:08.777Z,87.00
2018-02-05T06:02:06.344Z,87.00
2018-02-05T06:03:09.081Z,87.00
2018-02-05T06:04:08.118Z,87.10
2018-02-05T06:05:05.538Z,87.10
2018-02-05T06:06:06.546Z,87.10
2018-02-05T06:07:08.355Z,87.20
2018-02-05T06:08:08.480Z,87.20
2018-02-05T06:09:05.958Z,87.20
2018-02-05T06:10:08.130Z,87.20
2018-02-05T06:11:05.689Z,87.20
2018-02-05T06:12:06.433Z,87.20
2018-02-05T06:13:05.930Z,87.20
2018-02-05T06:14:11.153Z,87.30
2018-02-05T06:15:08.184Z,87.30
2018-02-05T06:16:05.604Z,87.50
2018-02-05T06:17:06.812Z,87.60
2018-02-05T06:18:06.632Z,87.40
2018-02-05T06:19:05.835Z,87.40
2018-02-05T06:20:10.815Z,87.60
2018-02-05T06:21:06.231Z,87.50
2018-02-05T06:22:08.580Z,87.70
2018-02-05T06:23:09.262Z,87.70
2018-02-05T06:24:05.995Z,87.70
2018-02-05T06:25:05.682Z,87.70
2018-02-05T06:26:06.469Z,87.60
2018-02-05T06:27:05.833Z,87.60
2018-02-05T06:28:11.569Z,87.80
2018-02-05T06:29:06.872Z,87.80
2018-02-05T06:30:06.417Z,87.80
2018-02-05T06:31:06.164Z,87.80
2018-02-05T06:32:08.422Z,88.00
2018-02-05T06:33:05.940Z,88.00
2018-02-05T06:34:10.660Z,88.00
2018-02-05T06:35:06.272Z,88.00
2018-02-05T06:36:06.226Z,88.00
2018-02-05T06:37:05.936Z,88.10
2018-02-05T06:38:05.754Z,88.10
2018-02-05T06:39:05.879Z,88.10
2018-02-05T06:40:05.774Z,88.00
2018-02-05T06:41:06.282Z,88.10
2018-02-05T06:42:08.831Z,88.10
2018-02-05T06:43:06.451Z,88.10
2018-02-05T06:44:06.516Z,88.10
2018-02-05T06:45:05.836Z,88.10
2018-02-05T06:46:06.498Z,88.00
2018-02-05T06:47:05.843Z,88.00
2018-02-05T06:48:05.833Z,88.00
2018-02-05T06:49:10.910Z,88.00
2018-02-05T06:50:13.655Z,88.00
2018-02-05T06:51:16.593Z,88.00
2018-02-05T06:52:06.272Z,88.00
2018-02-05T06:53:05.847Z,88.00
2018-02-05T06:54:09.397Z,88.10
2018-02-05T06:55:08.795Z,88.10
2018-02-05T06:56:06.348Z,88.00
2018-02-05T06:57:11.202Z,87.90
2018-02-05T06:58:05.625Z,88.00
2018-02-05T06:59:11.401Z,88.00
2018-02-05T07:00:10.914Z,88.00
2018-02-05T07:01:06.325Z,88.00
2018-02-05T07:02:05.908Z,88.00
2018-02-05T07:03:05.467Z,87.90
2018-02-05T07:04:19.266Z,88.00
2018-02-05T07:05:08.627Z,87.90
2018-02-05T07:06:05.691Z,87.90
2018-02-05T07:07:08.555Z,87.90
2018-02-05T07:08:06.143Z,87.90
2018-02-05T07:09:06.149Z,87.80
2018-02-05T07:10:07.091Z,87.80
2018-02-05T07:11:05.782Z,87.90
2018-02-05T07:12:06.267Z,87.80
2018-02-05T07:13:09.143Z,88.00
2018-02-05T07:14:05.627Z,87.80
2018-02-05T07:15:06.008Z,87.90
2018-02-05T07:16:05.913Z,87.80
2018-02-05T07:17:05.958Z,87.90
2018-02-05T07:18:05.629Z,88.00
2018-02-05T07:19:06.181Z,88.00
2018-02-05T07:20:05.919Z,88.00
2018-02-05T07:21:08.984Z,88.00
2018-02-05T07:22:06.608Z,88.00
2018-02-05T07:23:05.650Z,88.00
2018-02-05T07:24:05.809Z,88.00
2018-02-05T07:25:10.491Z,88.00
2018-02-05T07:26:05.645Z,88.00
2018-02-05T07:27:13.822Z,88.00
2018-02-05T07:28:06.334Z,88.00
2018-02-05T07:29:08.931Z,87.90
2018-02-05T07:30:06.432Z,88.00
2018-02-05T07:31:06.111Z,88.00
2018-02-05T07:32:10.936Z,88.00
2018-02-05T07:33:08.862Z,87.90
2018-02-05T07:34:05.911Z,87.90
2018-02-05T07:35:08.922Z,87.90
2018-02-05T07:36:11.543Z,88.00
2018-02-05T07:37:10.953Z,88.00
2018-02-05T07:38:09.343Z,88.00
2018-02-05T07:39:05.969Z,88.00
2018-02-05T07:40:08.489Z,88.00
2018-02-05T07:41:06.004Z,88.00
2018-02-05T07:42:05.767Z,88.00
2018-02-05T07:43:11.296Z,88.00
2018-02-05T07:44:10.852Z,88.00
2018-02-05T07:45:06.585Z,88.00
2018-02-05T07:46:10.618Z,87.90
2018-02-05T07:47:05.901Z,88.00
2018-02-05T07:48:06.166Z,87.90
2018-02-05T07:49:11.078Z,87.90
2018-02-05T07:50:11.557Z,87.90
2018-02-05T07:51:06.133Z,87.90
2018-02-05T07:52:08.200Z,87.90
2018-02-05T07:53:08.248Z,87.90
2018-02-05T07:54:08.452Z,87.90
2018-02-05T07:55:06.063Z,87.90
2018-02-05T07:56:06.168Z,87.80
2018-02-05T07:57:06.200Z,87.90
2018-02-05T07:58:06.165Z,87.90
2018-02-05T07:59:13.296Z,88.00
2018-02-05T08:00:08.208Z,88.00
2018-02-05T08:01:09.031Z,88.00
2018-02-05T08:02:08.943Z,88.00
2018-02-05T08:03:06.657Z,88.00
2018-02-05T08:04:06.332Z,88.00
2018-02-05T08:05:10.881Z,88.00
2018-02-05T08:06:06.521Z,88.00
2018-02-05T08:07:06.195Z,88.00
2018-02-05T08:08:06.228Z,88.00
2018-02-05T08:09:05.690Z,88.00
2018-02-05T08:10:08.283Z,88.10
2018-02-05T08:11:09.049Z,88.10
2018-02-05T08:12:05.821Z,88.00
2018-02-05T08:13:10.585Z,88.00
2018-02-05T08:14:05.807Z,88.00
2018-02-05T08:15:06.194Z,88.00
2018-02-05T08:16:10.335Z,88.10
2018-02-05T08:17:10.861Z,88.00
2018-02-05T08:18:06.292Z,88.00
2018-02-05T08:19:08.378Z,88.10
2018-02-05T08:20:10.742Z,88.10
2018-02-05T08:21:06.363Z,88.10
2018-02-05T08:22:06.244Z,88.10
2018-02-05T08:23:06.027Z,88.10
2018-02-05T08:24:10.712Z,88.10
2018-02-05T08:25:09.430Z,88.10
2018-02-05T08:26:06.025Z,88.10
2018-02-05T08:27:06.554Z,88.10
2018-02-05T08:28:09.706Z,88.00
2018-02-05T08:29:06.462Z,88.00
2018-02-05T08:30:06.619Z,88.00
2018-02-05T08:31:06.238Z,88.00
2018-02-05T08:32:12.114Z,88.00
2018-02-05T08:33:05.647Z,88.00
2018-02-05T08:34:11.253Z,88.00
2018-02-05T08:35:08.634Z,88.00
2018-02-05T08:36:08.993Z,88.00
2018-02-05T08:37:06.357Z,88.00
2018-02-05T08:38:05.795Z,88.00
2018-02-05T08:39:10.602Z,88.10
2018-02-05T08:40:10.931Z,88.00
2018-02-05T08:41:06.349Z,88.00
2018-02-05T08:42:11.053Z,88.00
2018-02-05T08:43:11.203Z,88.10
2018-02-05T08:44:10.938Z,88.10
2018-02-05T08:45:06.220Z,88.00
2018-02-05T08:46:05.999Z,88.00
2018-02-05T08:47:06.106Z,87.90
2018-02-05T08:48:05.805Z,88.00
2018-02-05T08:49:05.700Z,87.90
2018-02-05T08:50:06.444Z,88.00
2018-02-05T08:51:06.112Z,88.00
2018-02-05T08:52:06.187Z,88.00
2018-02-05T08:53:06.956Z,88.00
2018-02-05T08:54:05.601Z,88.00
2018-02-05T08:55:12.233Z,88.00
2018-02-05T08:56:08.954Z,88.00
2018-02-05T08:57:11.447Z,88.00
2018-02-05T08:58:05.849Z,88.00
2018-02-05T08:59:05.842Z,88.00
2018-02-05T09:00:08.731Z,88.10
2018-02-05T09:01:09.162Z,88.10
2018-02-05T09:02:05.570Z,88.10
2018-02-05T09:03:05.710Z,88.10
2018-02-05T09:04:05.935Z,88.10
2018-02-05T09:05:05.566Z,88.00
2018-02-05T09:06:05.749Z,88.00
2018-02-05T09:07:05.894Z,87.90
2018-02-05T09:08:15.512Z,87.90
2018-02-05T09:09:09.124Z,87.70
2018-02-05T09:10:08.162Z,87.70
2018-02-05T09:11:08.188Z,87.70
2018-02-05T09:12:05.662Z,87.70
2018-02-05T09:13:11.489Z,87.70
2018-02-05T09:14:11.166Z,87.80
2018-02-05T09:15:10.634Z,87.80
2018-02-05T09:16:09.222Z,87.70
2018-02-05T09:17:08.541Z,87.70
2018-02-05T09:18:07.035Z,87.70
2018-02-05T09:19:06.134Z,87.70
2018-02-05T09:20:05.658Z,87.70
2018-02-05T09:21:05.634Z,87.70
2018-02-05T09:22:08.832Z,87.60
2018-02-05T09:23:06.391Z,87.60
2018-02-05T09:24:08.297Z,87.50
2018-02-05T09:25:05.817Z,87.50
2018-02-05T09:26:05.995Z,87.40
2018-02-05T09:27:13.768Z,87.40
2018-02-05T09:28:06.248Z,87.40
2018-02-05T09:29:06.149Z,87.40
2018-02-05T09:30:05.780Z,87.40
2018-02-05T09:31:05.985Z,87.60
2018-02-05T09:32:06.220Z,87.50
2018-02-05T09:33:06.314Z,87.50
2018-02-05T09:34:05.959Z,87.50
2018-02-05T09:35:05.737Z,87.50
2018-02-05T09:36:09.022Z,87.50
2018-02-05T09:37:06.532Z,87.50
2018-02-05T09:38:06.164Z,87.50
2018-02-05T09:39:10.784Z,87.40
2018-02-05T09:40:11.010Z,87.40
2018-02-05T09:41:05.586Z,87.40
2018-02-05T09:42:05.766Z,87.50
2018-02-05T09:43:05.897Z,87.60
2018-02-05T09:44:05.928Z,87.60
2018-02-05T09:45:05.595Z,87.50
2018-02-05T09:46:06.266Z,87.50
2018-02-05T09:47:06.237Z,87.40
2018-02-05T09:48:11.029Z,87.50
2018-02-05T09:49:05.621Z,87.50
2018-02-05T09:50:08.835Z,87.60
2018-02-05T09:51:06.360Z,87.60
2018-02-05T09:52:10.642Z,87.50
2018-02-05T09:53:11.139Z,87.30
2018-02-05T09:54:13.082Z,87.20
2018-02-05T09:55:05.616Z,87.20
2018-02-05T09:56:06.235Z,87.20
2018-02-05T09:57:10.912Z,86.70
2018-02-05T09:58:08.983Z,86.40
2018-02-05T09:59:05.487Z,86.40
2018-02-05T10:00:06.276Z,86.30
2018-02-05T10:01:05.911Z,86.10
2018-02-05T10:02:08.701Z,85.50
2018-02-05T10:03:13.795Z,85.30
2018-02-05T10:04:06.444Z,85.20
2018-02-05T10:05:06.012Z,85.00
2018-02-05T10:06:06.442Z,84.60
2018-02-05T10:07:10.628Z,84.10
2018-02-05T10:08:05.607Z,84.10
2018-02-05T10:09:06.501Z,84.20
2018-02-05T10:10:08.897Z,83.80
2018-02-05T10:11:06.391Z,83.80
2018-02-05T10:12:13.659Z,83.70
2018-02-05T10:13:13.763Z,83.50
2018-02-05T10:14:11.617Z,83.40
2018-02-05T10:15:08.792Z,83.50
2018-02-05T10:16:11.404Z,83.50
2018-02-05T10:17:05.840Z,83.50
2018-02-05T10:18:06.701Z,83.50
2018-02-05T10:19:08.928Z,83.30
2018-02-05T10:20:09.007Z,82.80
2018-02-05T10:21:06.713Z,82.80
2018-02-05T10:22:08.761Z,82.50
2018-02-05T10:23:06.437Z,82.50
2018-02-05T10:24:11.749Z,82.30
2018-02-05T10:25:06.212Z,82.20
2018-02-05T10:26:06.080Z,82.20
2018-02-05T10:27:05.533Z,82.20
2018-02-05T10:28:07.676Z,82.10
2018-02-05T10:29:05.773Z,82.20
2018-02-05T10:30:06.277Z,82.10
2018-02-05T10:31:05.980Z,81.80
2018-02-05T10:32:06.043Z,81.40
2018-02-05T10:33:06.142Z,81.30
2018-02-05T10:34:08.367Z,81.80
2018-02-05T10:35:10.672Z,81.60
2018-02-05T10:36:06.468Z,81.60
2018-02-05T10:37:05.598Z,81.30
2018-02-05T10:38:05.790Z,81.00
2018-02-05T10:39:05.816Z,80.80
2018-02-05T10:40:06.787Z,81.10
2018-02-05T10:41:06.369Z,81.00
2018-02-05T10:42:06.537Z,80.80
2018-02-05T10:43:16.755Z,80.60
2018-02-05T10:44:06.263Z,80.80
2018-02-05T10:45:06.327Z,80.60
2018-02-05T10:46:05.510Z,80.10
2018-02-05T10:47:05.826Z,80.00
2018-02-05T10:48:09.116Z,80.00
2018-02-05T10:49:06.094Z,79.80
2018-02-05T10:50:05.878Z,80.20
2018-02-05T10:51:08.542Z,80.40
2018-02-05T10:52:08.911Z,80.30
2018-02-05T10:53:06.543Z,80.30
2018-02-05T10:54:05.942Z,80.20
2018-02-05T10:55:08.843Z,80.30
2018-02-05T10:56:06.313Z,80.30
2018-02-05T10:57:05.579Z,80.00
2018-02-05T10:58:16.202Z,80.00
2018-02-05T10:59:09.154Z,78.90
2018-02-05T11:03:12.778Z,77.60
2018-02-05T11:04:10.733Z,77.00
2018-02-05T11:12:11.436Z,76.10
2018-02-05T11:13:14.243Z,76.10
2018-02-05T11:14:07.518Z,76.30
2018-02-05T11:17:05.792Z,75.90
2018-02-05T11:18:11.570Z,75.50
2018-02-05T11:19:12.003Z,75.50
2018-02-05T11:20:09.012Z,76.00
2018-02-05T11:21:06.451Z,76.00
2018-02-05T11:22:06.269Z,76.20
2018-02-05T11:23:05.653Z,76.20
2018-02-05T11:24:06.373Z,76.40
2018-02-05T11:25:06.376Z,76.40
2018-02-05T11:26:08.209Z,76.60
2018-02-05T11:27:05.926Z,76.60
2018-02-05T11:28:05.490Z,76.90
2018-02-05T11:29:08.835Z,77.30
2018-02-05T11:30:06.481Z,77.30
2018-02-05T11:31:06.453Z,77.60
2018-02-05T11:32:08.455Z,77.30
2018-02-05T11:33:05.887Z,77.30
2018-02-05T11:34:08.249Z,77.40
2018-02-05T11:35:08.363Z,77.30
2018-02-05T11:36:08.382Z,26.20
2018-02-05T11:37:06.074Z,77.40
2018-02-05T11:38:06.064Z,77.40
2018-02-05T11:39:06.945Z,77.20
2018-02-05T11:40:08.054Z,77.00
2018-02-05T11:41:06.468Z,77.00
2018-02-05T11:42:06.529Z,77.20
2018-02-05T11:43:07.540Z,77.20
2018-02-05T11:44:11.423Z,77.00
2018-02-05T11:45:06.041Z,76.80
2018-02-05T11:46:05.758Z,76.60
2018-02-05T11:47:06.324Z,76.30
2018-02-05T11:48:09.283Z,76.30
2018-02-05T11:49:06.037Z,76.30
2018-02-05T11:50:06.479Z,76.40
2018-02-05T11:51:11.372Z,76.50
2018-02-05T11:52:05.962Z,76.50
2018-02-05T11:53:06.473Z,75.80
2018-02-05T11:54:05.961Z,75.50
2018-02-05T11:55:05.891Z,75.40
2018-02-05T11:56:06.034Z,75.20
2018-02-05T11:57:05.862Z,75.10
2018-02-05T11:58:11.434Z,75.60
2018-02-05T11:59:05.878Z,75.50
2018-02-05T12:00:11.467Z,75.50
2018-02-05T12:01:09.712Z,75.70
2018-02-05T12:02:06.426Z,75.70
2018-02-05T12:03:08.845Z,76.20
2018-02-05T12:04:08.534Z,76.40
2018-02-05T12:05:11.035Z,76.40
2018-02-05T12:06:06.072Z,76.50
2018-02-05T12:07:05.857Z,76.60
2018-02-05T12:08:08.579Z,76.60
2018-02-05T12:09:06.258Z,76.60
2018-02-05T12:10:11.526Z,76.80
2018-02-05T12:11:05.791Z,76.80
2018-02-05T12:12:05.543Z,76.90
2018-02-05T12:13:09.412Z,76.90
2018-02-05T12:14:06.126Z,76.90
2018-02-05T12:15:10.939Z,76.70
2018-02-05T12:16:06.357Z,76.70
2018-02-05T12:17:06.326Z,76.80
2018-02-05T12:18:08.631Z,76.60
2018-02-05T12:19:08.311Z,76.60
2018-02-05T12:20:05.780Z,76.60
2018-02-05T12:21:05.761Z,76.30
2018-02-05T12:22:07.297Z,75.90
2018-02-05T12:23:08.372Z,75.90
2018-02-05T12:24:05.854Z,75.90
2018-02-05T12:25:05.889Z,75.70
2018-02-05T12:26:06.544Z,75.50
2018-02-05T12:27:06.281Z,75.50
2018-02-05T12:28:06.238Z,75.40
2018-02-05T12:29:05.926Z,75.00
2018-02-05T12:30:05.942Z,74.90
2018-02-05T12:31:10.851Z,74.80
2018-02-05T12:32:11.135Z,75.30
2018-02-05T12:33:11.298Z,75.50
2018-02-05T12:34:10.814Z,75.50
2018-02-05T12:35:09.184Z,75.20
2018-02-05T12:36:10.703Z,75.30
2018-02-05T12:37:06.218Z,75.30
2018-02-05T12:38:05.621Z,75.50
2018-02-05T12:39:05.766Z,75.60
2018-02-05T12:40:05.853Z,75.80
2018-02-05T12:41:08.727Z,75.60
2018-02-05T12:42:08.827Z,75.50
2018-02-05T12:43:10.137Z,75.50
2018-02-05T12:44:08.206Z,75.70
2018-02-05T12:45:05.890Z,75.70
2018-02-05T12:46:05.715Z,75.50
2018-02-05T12:47:06.502Z,75.70
2018-02-05T12:48:06.391Z,75.70
2018-02-05T12:49:06.463Z,75.80
2018-02-05T12:50:13.925Z,75.60
2018-02-05T12:51:06.464Z,75.60
2018-02-05T12:52:08.785Z,75.70
2018-02-05T12:53:11.385Z,75.90
2018-02-05T12:54:06.270Z,75.90
2018-02-05T12:55:08.845Z,76.00
2018-02-05T12:56:05.722Z,76.00
2018-02-05T12:57:05.566Z,76.10
2018-02-05T12:58:09.180Z,76.30
2018-02-05T12:59:05.702Z,76.10
2018-02-05T13:00:05.768Z,76.10
2018-02-05T13:01:06.344Z,76.20
2018-02-05T13:02:11.597Z,75.90
2018-02-05T13:03:08.902Z,75.50
2018-02-05T13:04:06.203Z,75.70